Time;durP1;ratioP1;P1;durP2;ratioP2;P2;SDS_P1;SDS_P2;PMS_P1;PMS_P2;Temp;Humidity;BMP_temperature;BMP_pressure;BME280_temperature;BME280_humidity;BME280_pressure;Samples;Min_cycle;Max_cycle;Signal;HPM_P1;HPM_P2
2022/05/18 00:02:00;;;;;;;9.38;3.90;;;;;;;;;;5016262;28;20045;-73
2022/05/18 00:04:27;;;;;;;9.00;4.32;;;;;;;;;;5018607;28;20388;-74
2022/05/18 00:06:53;;;;;;;7.50;4.03;;;;;;;;;;5016428;28;20199;-73
2022/05/18 00:09:19;;;;;;;7.65;4.05;;;;;;;;;;5034518;28;21120;-74
2022/05/18 00:11:46;;;;;;;7.18;4.10;;;;;;;;;;5036278;28;20056;-74
2022/05/18 00:14:12;;;;;;;10.65;4.20;;;;;;;;;;5029462;28;20037;-74
2022/05/18 00:16:38;;;;;;;7.82;4.22;;;;;;;;;;5033216;28;20095;-75
2022/05/18 00:19:04;;;;;;;7.45;4.07;;;;;;;;;;5033003;28;20045;-74
2022/05/18 00:21:31;;;;;;;8.15;4.45;;;;;;;;;;5032976;28;20076;-74
2022/05/18 00:23:58;;;;;;;13.45;4.82;;;;;;;;;;5031645;28;20136;-74
2022/05/18 00:26:25;;;;;;;8.88;4.57;;;;;;;;;;5033547;28;20057;-74
2022/05/18 00:28:51;;;;;;;12.88;4.43;;;;;;;;;;5034761;28;20077;-73
2022/05/18 00:31:19;;;;;;;9.25;4.00;;;;;;;;;;5032089;28;20064;-75
2022/05/18 00:33:45;;;;;;;10.43;4.75;;;;;;;;;;5036228;28;20500;-74
2022/05/18 00:36:11;;;;;;;8.27;3.95;;;;;;;;;;5033542;28;20048;-74
2022/05/18 00:38:37;;;;;;;9.55;4.40;;;;;;;;;;5032992;28;20081;-74
2022/05/18 00:41:03;;;;;;;9.88;4.50;;;;;;;;;;5034229;28;20038;-74
2022/05/18 00:43:29;;;;;;;8.48;4.10;;;;;;;;;;5029890;28;20041;-74
2022/05/18 00:45:56;;;;;;;7.40;4.53;;;;;;;;;;5030670;28;20053;-73
2022/05/18 00:48:22;;;;;;;10.07;4.80;;;;;;;;;;5033367;28;20099;-75
2022/05/18 00:50:48;;;;;;;9.80;4.60;;;;;;;;;;5036072;28;20129;-74
2022/05/18 00:53:16;;;;;;;9.98;4.53;;;;;;;;;;5034820;28;20045;-74
2022/05/18 00:55:44;;;;;;;9.68;5.15;;;;;;;;;;5034524;28;20050;-73
2022/05/18 00:58:18;;;;;;;8.35;4.65;;;;;;;;;;5035378;28;20403;-74
2022/05/18 01:00:45;;;;;;;8.93;4.80;;;;;;;;;;5032216;28;20053;-74
2022/05/18 01:03:21;;;;;;;11.15;5.32;;;;;;;;;;5033644;28;20045;-73
2022/05/18 01:05:49;;;;;;;10.70;5.70;;;;;;;;;;5014458;28;20059;-74
2022/05/18 01:08:17;;;;;;;13.32;5.15;;;;;;;;;;5017312;28;20057;-73
2022/05/18 01:10:43;;;;;;;9.25;5.60;;;;;;;;;;5032987;28;20046;-73
2022/05/18 01:13:09;;;;;;;9.77;5.30;;;;;;;;;;5034829;28;20045;-74
2022/05/18 01:15:35;;;;;;;12.35;5.10;;;;;;;;;;5031948;28;20100;-72
2022/05/18 01:18:01;;;;;;;8.50;5.13;;;;;;;;;;5035195;28;20407;-73
2022/05/18 01:20:30;;;;;;;9.02;5.43;;;;;;;;;;5035220;28;20044;-74
2022/05/18 01:23:15;;;;;;;12.77;5.57;;;;;;;;;;5034540;28;20057;-73
2022/05/18 01:26:00;;;;;;;9.15;5.60;;;;;;;;;;5033869;28;20052;-74
2022/05/18 01:28:36;;;;;;;11.40;6.00;;;;;;;;;;5034704;28;20072;-74
2022/05/18 01:31:04;;;;;;;9.00;5.63;;;;;;;;;;5036702;28;20099;-74
2022/05/18 01:33:30;;;;;;;10.13;5.45;;;;;;;;;;5018134;28;20053;-73
2022/05/18 01:35:56;;;;;;;12.27;5.68;;;;;;;;;;5031526;28;20053;-75
2022/05/18 01:38:22;;;;;;;9.82;5.72;;;;;;;;;;5033335;28;20033;-74
2022/05/18 01:41:00;;;;;;;9.07;5.72;;;;;;;;;;5030570;28;20037;-74
2022/05/18 01:43:26;;;;;;;9.68;5.57;;;;;;;;;;5034055;28;20041;-74
2022/05/18 01:45:54;;;;;;;8.82;5.25;;;;;;;;;;5012770;28;20154;-74
2022/05/18 01:48:22;;;;;;;10.45;5.53;;;;;;;;;;5032761;28;20041;-74
2022/05/18 01:50:50;;;;;;;9.15;5.85;;;;;;;;;;5027020;28;20455;-73
2022/05/18 01:53:16;;;;;;;9.80;4.85;;;;;;;;;;5034737;28;20049;-74
2022/05/18 01:55:43;;;;;;;7.55;5.03;;;;;;;;;;5033439;28;20116;-73
2022/05/18 01:58:10;;;;;;;10.32;5.72;;;;;;;;;;5033179;28;20046;-74
2022/05/18 02:00:37;;;;;;;9.45;5.30;;;;;;;;;;5034006;28;20049;-73
2022/05/18 02:03:03;;;;;;;10.63;5.07;;;;;;;;;;5034653;28;20739;-73
2022/05/18 02:05:29;;;;;;;12.45;5.07;;;;;;;;;;5036301;28;20613;-74
2022/05/18 02:07:57;;;;;;;8.50;5.30;;;;;;;;;;5018689;28;20057;-74
2022/05/18 02:10:23;;;;;;;8.77;4.82;;;;;;;;;;5020916;28;20065;-72
2022/05/18 02:12:49;;;;;;;9.18;4.78;;;;;;;;;;5022143;28;20503;-74
2022/05/18 02:15:15;;;;;;;7.88;4.90;;;;;;;;;;5019837;28;20073;-74
2022/05/18 02:17:41;;;;;;;8.30;4.85;;;;;;;;;;5019291;28;20091;-74
2022/05/18 02:20:08;;;;;;;9.57;5.03;;;;;;;;;;5022671;28;20052;-73
2022/05/18 02:22:34;;;;;;;8.70;4.93;;;;;;;;;;5020756;28;20041;-73
2022/05/18 02:25:00;;;;;;;8.52;5.10;;;;;;;;;;5019446;28;20527;-74
2022/05/18 02:27:26;;;;;;;8.00;5.07;;;;;;;;;;5019363;28;20451;-74
2022/05/18 02:29:52;;;;;;;9.85;5.82;;;;;;;;;;5021172;28;20042;-73
2022/05/18 02:32:18;;;;;;;11.95;5.78;;;;;;;;;;5019262;28;20045;-74
2022/05/18 02:34:44;;;;;;;10.13;5.47;;;;;;;;;;5013966;28;20069;-75
2022/05/18 02:37:10;;;;;;;12.10;5.60;;;;;;;;;;5015455;28;20060;-73
2022/05/18 02:39:36;;;;;;;10.32;5.75;;;;;;;;;;5019290;28;20129;-74
2022/05/18 02:42:02;;;;;;;10.52;5.82;;;;;;;;;;5020620;28;20050;-73
2022/05/18 02:44:28;;;;;;;9.88;5.80;;;;;;;;;;5020507;28;20129;-74
2022/05/18 02:47:01;;;;;;;12.10;6.13;;;;;;;;;;5019610;28;20127;-73
2022/05/18 02:49:28;;;;;;;11.77;5.95;;;;;;;;;;5019555;28;20100;-73
2022/05/18 02:51:54;;;;;;;9.65;5.80;;;;;;;;;;5019995;28;20046;-73
2022/05/18 02:57:05;;;;;;;11.13;6.10;;;;;;;;;;5009523;28;20403;-73
2022/05/18 02:59:31;;;;;;;11.65;6.05;;;;;;;;;;5021490;28;20053;-74
2022/05/18 03:01:57;;;;;;;11.60;5.65;;;;;;;;;;5017011;28;20034;-74
2022/05/18 03:04:23;;;;;;;10.27;5.53;;;;;;;;;;5018394;28;20571;-74
2022/05/18 03:06:49;;;;;;;10.90;5.95;;;;;;;;;;5019810;28;20060;-74
2022/05/18 03:09:15;;;;;;;10.25;6.03;;;;;;;;;;5040730;28;20045;-74
2022/05/18 03:11:41;;;;;;;10.63;5.93;;;;;;;;;;5019567;28;20041;-74
2022/05/18 03:14:07;;;;;;;10.05;5.88;;;;;;;;;;5040292;28;20042;-73
2022/05/18 03:16:33;;;;;;;11.40;5.90;;;;;;;;;;5036332;28;20041;-76
2022/05/18 03:19:01;;;;;;;8.68;5.72;;;;;;;;;;5038180;28;20129;-73
2022/05/18 03:24:11;;;;;;;11.23;5.95;;;;;;;;;;5032352;28;20076;-74
2022/05/18 03:26:38;;;;;;;8.88;6.28;;;;;;;;;;5033836;28;20108;-74
2022/05/18 03:29:04;;;;;;;9.07;6.28;;;;;;;;;;5036826;28;20540;-73
2022/05/18 03:31:30;;;;;;;11.90;6.78;;;;;;;;;;5034020;28;20037;-74
2022/05/18 03:33:56;;;;;;;10.23;6.32;;;;;;;;;;5034722;28;20052;-74
2022/05/18 03:36:23;;;;;;;11.50;6.45;;;;;;;;;;5037273;28;20175;-74
2022/05/18 03:38:49;;;;;;;11.77;6.80;;;;;;;;;;5035915;28;20041;-73
2022/05/18 03:41:16;;;;;;;11.90;6.70;;;;;;;;;;5032667;28;20041;-74
2022/05/18 03:43:42;;;;;;;11.30;6.82;;;;;;;;;;5016455;28;20048;-73
2022/05/18 03:46:09;;;;;;;10.75;6.57;;;;;;;;;;5027530;28;20045;-75
2022/05/18 03:48:35;;;;;;;9.85;6.78;;;;;;;;;;5028805;28;20037;-74
2022/05/18 03:51:02;;;;;;;12.38;6.50;;;;;;;;;;5035653;28;20443;-74
2022/05/18 03:53:29;;;;;;;9.60;6.32;;;;;;;;;;5020086;28;20073;-74
2022/05/18 03:55:55;;;;;;;13.77;6.80;;;;;;;;;;5034515;28;20049;-74
2022/05/18 03:58:21;;;;;;;13.05;6.88;;;;;;;;;;5033655;28;20060;-73
2022/05/18 04:00:48;;;;;;;12.02;6.72;;;;;;;;;;5034534;28;20042;-73
2022/05/18 04:03:15;;;;;;;10.02;6.57;;;;;;;;;;5024944;28;20038;-72
2022/05/18 04:05:41;;;;;;;9.57;6.43;;;;;;;;;;5024433;28;20512;-73
2022/05/18 04:08:08;;;;;;;9.75;6.47;;;;;;;;;;5014771;28;20062;-73
2022/05/18 04:10:34;;;;;;;13.20;7.30;;;;;;;;;;5015217;28;20508;-72
2022/05/18 04:13:00;;;;;;;10.65;6.25;;;;;;;;;;4999967;28;20101;-74
2022/05/18 04:15:27;;;;;;;10.82;6.85;;;;;;;;;;5016914;28;20053;-74
2022/05/18 04:17:53;;;;;;;10.38;6.75;;;;;;;;;;5015494;28;20054;-73
2022/05/18 04:20:20;;;;;;;12.15;7.00;;;;;;;;;;5011488;28;20077;-74
2022/05/18 04:22:47;;;;;;;10.80;6.93;;;;;;;;;;5006934;28;20051;-74
2022/05/18 04:25:15;;;;;;;13.70;7.35;;;;;;;;;;5012377;28;20049;-74
2022/05/18 04:27:42;;;;;;;13.15;6.95;;;;;;;;;;4997045;28;20515;-74
2022/05/18 04:30:08;;;;;;;11.95;6.90;;;;;;;;;;5014709;28;20052;-74
2022/05/18 04:32:34;;;;;;;11.93;7.05;;;;;;;;;;5015572;28;20048;-75
2022/05/18 04:35:00;;;;;;;11.57;7.40;;;;;;;;;;5014912;28;20395;-74
2022/05/18 04:37:26;;;;;;;11.25;7.00;;;;;;;;;;5014884;28;20045;-75
2022/05/18 04:39:52;;;;;;;11.80;6.55;;;;;;;;;;5013138;28;20519;-74
2022/05/18 04:42:22;;;;;;;12.43;6.90;;;;;;;;;;5002327;28;20105;-74
2022/05/18 04:44:49;;;;;;;11.95;7.13;;;;;;;;;;5014443;28;20052;-74
2022/05/18 04:47:15;;;;;;;11.30;7.50;;;;;;;;;;5016497;28;20084;-74
2022/05/18 04:49:41;;;;;;;10.02;7.03;;;;;;;;;;5009597;28;20500;-74
2022/05/18 04:52:08;;;;;;;12.32;7.68;;;;;;;;;;5017628;28;20046;-73
2022/05/18 04:54:35;;;;;;;11.65;7.22;;;;;;;;;;5014872;28;20162;-74
2022/05/18 04:57:01;;;;;;;11.23;7.45;;;;;;;;;;5007131;28;20065;-74
2022/05/18 04:59:27;;;;;;;9.85;7.35;;;;;;;;;;5015119;28;20117;-74
2022/05/18 05:01:55;;;;;;;11.80;7.43;;;;;;;;;;5008381;28;20046;-72
2022/05/18 05:04:21;;;;;;;13.63;7.35;;;;;;;;;;5006232;28;20081;-73
2022/05/18 05:06:47;;;;;;;12.63;7.80;;;;;;;;;;5006769;28;20069;-74
2022/05/18 05:09:13;;;;;;;10.73;7.95;;;;;;;;;;5010397;28;20623;-74
2022/05/18 05:11:39;;;;;;;12.55;8.00;;;;;;;;;;5014105;28;20073;-74
2022/05/18 05:14:06;;;;;;;11.15;7.85;;;;;;;;;;5015462;28;20554;-74
2022/05/18 05:16:33;;;;;;;12.07;8.38;;;;;;;;;;5003614;28;20117;-74
2022/05/18 05:18:59;;;;;;;12.45;8.07;;;;;;;;;;4999618;28;20111;-73
2022/05/18 05:21:25;;;;;;;11.60;7.60;;;;;;;;;;5003366;28;20054;-74
2022/05/18 05:23:51;;;;;;;12.73;8.45;;;;;;;;;;5003182;28;20061;-74
2022/05/18 05:26:17;;;;;;;12.05;7.95;;;;;;;;;;5012839;28;20046;-74
2022/05/18 05:28:43;;;;;;;12.43;7.80;;;;;;;;;;5015679;28;20126;-75
2022/05/18 05:31:10;;;;;;;12.77;8.30;;;;;;;;;;5013829;28;20076;-73
2022/05/18 05:33:37;;;;;;;12.57;7.70;;;;;;;;;;5016012;28;20408;-74
2022/05/18 05:36:03;;;;;;;11.75;8.30;;;;;;;;;;5008657;28;20408;-74
2022/05/18 05:38:29;;;;;;;12.73;7.93;;;;;;;;;;5015128;28;20060;-74
2022/05/18 05:40:55;;;;;;;11.55;7.45;;;;;;;;;;5009073;28;20081;-75
2022/05/18 05:43:23;;;;;;;11.73;7.53;;;;;;;;;;5016762;28;20033;-74
2022/05/18 05:46:00;;;;;;;12.70;7.40;;;;;;;;;;5014565;28;20096;-74
2022/05/18 05:48:26;;;;;;;10.07;6.60;;;;;;;;;;5015797;28;20045;-74
2022/05/18 05:50:52;;;;;;;11.10;6.93;;;;;;;;;;5015682;28;20122;-74
2022/05/18 05:53:19;;;;;;;12.35;6.63;;;;;;;;;;5015905;28;20045;-74
2022/05/18 05:55:44;;;;;;;10.05;6.82;;;;;;;;;;5014734;28;20057;-74
2022/05/18 05:58:10;;;;;;;12.13;6.95;;;;;;;;;;5016032;28;20037;-74
2022/05/18 06:00:37;;;;;;;10.07;7.00;;;;;;;;;;5016225;28;20038;-73
2022/05/18 06:03:03;;;;;;;9.77;6.63;;;;;;;;;;5014700;28;20073;-74
2022/05/18 06:05:29;;;;;;;9.05;6.07;;;;;;;;;;5013578;28;20127;-73
2022/05/18 06:07:56;;;;;;;11.30;6.40;;;;;;;;;;5025122;28;20049;-75
2022/05/18 06:10:22;;;;;;;9.13;6.15;;;;;;;;;;5014846;28;20060;-74
2022/05/18 06:12:48;;;;;;;8.73;6.30;;;;;;;;;;5033112;28;20124;-74
2022/05/18 06:15:14;;;;;;;9.27;6.45;;;;;;;;;;5018709;28;20092;-74
2022/05/18 06:17:40;;;;;;;8.77;6.32;;;;;;;;;;5015443;28;20088;-75
2022/05/18 06:20:07;;;;;;;10.45;6.45;;;;;;;;;;5034649;28;20038;-75
2022/05/18 06:22:33;;;;;;;11.38;6.63;;;;;;;;;;5020068;28;20042;-75
2022/05/18 06:24:59;;;;;;;12.77;6.40;;;;;;;;;;5037800;28;20045;-74
2022/05/18 06:27:25;;;;;;;9.52;6.40;;;;;;;;;;5036136;28;20541;-74
2022/05/18 06:29:51;;;;;;;10.20;6.18;;;;;;;;;;5034751;28;20037;-74
2022/05/18 06:32:18;;;;;;;8.23;6.35;;;;;;;;;;5031870;28;20037;-74
2022/05/18 06:34:45;;;;;;;9.13;6.38;;;;;;;;;;5018744;28;20049;-75
2022/05/18 06:37:11;;;;;;;11.40;6.60;;;;;;;;;;5032961;28;20056;-75
2022/05/18 06:39:37;;;;;;;10.00;6.80;;;;;;;;;;5032580;28;20148;-75
2022/05/18 06:42:04;;;;;;;11.23;6.72;;;;;;;;;;5034520;28;20125;-75
2022/05/18 06:44:30;;;;;;;12.65;6.45;;;;;;;;;;5035964;28;20053;-74
2022/05/18 06:47:00;;;;;;;11.32;6.63;;;;;;;;;;5034685;28;20045;-74
2022/05/18 06:49:29;;;;;;;10.68;6.50;;;;;;;;;;5036443;28;20581;-75
2022/05/18 06:51:58;;;;;;;9.68;5.80;;;;;;;;;;5024527;28;20053;-75
2022/05/18 06:54:25;;;;;;;8.63;6.50;;;;;;;;;;5039671;28;20099;-75
2022/05/18 06:56:51;;;;;;;11.02;6.25;;;;;;;;;;5043270;28;20124;-76
2022/05/18 06:59:19;;;;;;;9.20;6.63;;;;;;;;;;5043784;28;20041;-76
2022/05/18 07:01:45;;;;;;;9.70;6.50;;;;;;;;;;5039499;28;20069;-76
2022/05/18 07:04:12;;;;;;;10.18;6.45;;;;;;;;;;5039110;28;20054;-76
2022/05/18 07:06:39;;;;;;;13.55;6.60;;;;;;;;;;5021666;28;20046;-75
2022/05/18 07:09:06;;;;;;;8.70;6.70;;;;;;;;;;5037811;28;20046;-76
2022/05/18 07:11:36;;;;;;;9.27;6.18;;;;;;;;;;5037132;28;20054;-76
2022/05/18 07:14:02;;;;;;;8.87;6.27;;;;;;;;;;5039611;28;20101;-79
2022/05/18 07:16:29;;;;;;;11.18;6.80;;;;;;;;;;5042069;28;20185;-76
2022/05/18 07:18:55;;;;;;;12.82;6.80;;;;;;;;;;5040925;28;20056;-75
2022/05/18 07:21:22;;;;;;;11.18;6.65;;;;;;;;;;5039602;28;20044;-75
2022/05/18 07:23:48;;;;;;;9.05;6.40;;;;;;;;;;5040196;28;20049;-76
2022/05/18 07:26:14;;;;;;;12.57;6.75;;;;;;;;;;5026720;28;20045;-75
2022/05/18 07:28:41;;;;;;;9.90;7.10;;;;;;;;;;5037465;28;20403;-76
2022/05/18 07:31:07;;;;;;;11.45;6.60;;;;;;;;;;5040529;28;20046;-76
2022/05/18 07:33:33;;;;;;;12.02;6.00;;;;;;;;;;5042594;28;20038;-76
2022/05/18 07:35:59;;;;;;;9.23;6.65;;;;;;;;;;5040014;28;20107;-76
2022/05/18 07:38:26;;;;;;;9.63;5.70;;;;;;;;;;5041070;28;20183;-76
2022/05/18 07:40:53;;;;;;;9.63;6.65;;;;;;;;;;5037603;28;20053;-76
2022/05/18 07:43:19;;;;;;;8.75;5.85;;;;;;;;;;5033388;28;20045;-76
2022/05/18 07:45:46;;;;;;;9.75;5.88;;;;;;;;;;5017929;28;20140;-75
2022/05/18 07:48:12;;;;;;;9.40;6.20;;;;;;;;;;5019944;28;20044;-76
2022/05/18 07:50:38;;;;;;;8.40;6.00;;;;;;;;;;5039030;28;20042;-76
2022/05/18 07:53:04;;;;;;;9.43;5.95;;;;;;;;;;5021556;28;20042;-76
2022/05/18 07:55:30;;;;;;;9.20;5.60;;;;;;;;;;5037477;28;20042;-75
2022/05/18 07:57:56;;;;;;;10.27;6.30;;;;;;;;;;5033287;28;20068;-75
2022/05/18 08:00:23;;;;;;;11.45;6.18;;;;;;;;;;5040433;28;20045;-75
2022/05/18 08:02:50;;;;;;;10.00;5.88;;;;;;;;;;5037331;28;20451;-77
2022/05/18 08:05:16;;;;;;;10.27;5.90;;;;;;;;;;5041188;28;20049;-76
2022/05/18 08:07:45;;;;;;;11.10;5.50;;;;;;;;;;5042635;28;20053;-81
2022/05/18 08:15:41;;;;;;;11.25;6.07;;;;;;;;;;5037062;28;20049;-77
2022/05/18 08:18:07;;;;;;;10.20;6.28;;;;;;;;;;5038651;28;20069;-76
2022/05/18 08:20:37;;;;;;;9.40;5.60;;;;;;;;;;5041356;28;20411;-76
2022/05/18 08:23:03;;;;;;;9.77;5.25;;;;;;;;;;5029098;28;20488;-76
2022/05/18 08:25:29;;;;;;;14.88;5.80;;;;;;;;;;5039130;28;20042;-76
2022/05/18 08:27:55;;;;;;;11.10;5.20;;;;;;;;;;5040870;28;20049;-75
2022/05/18 08:30:21;;;;;;;10.75;5.20;;;;;;;;;;5040657;28;20041;-77
2022/05/18 08:32:47;;;;;;;11.43;5.63;;;;;;;;;;5049462;28;20049;-75
2022/05/18 08:35:14;;;;;;;8.52;5.30;;;;;;;;;;5044467;28;20123;-76
2022/05/18 08:37:44;;;;;;;10.50;5.45;;;;;;;;;;5021823;28;20060;-74
2022/05/18 08:40:31;;;;;;;11.55;5.32;;;;;;;;;;5028892;28;20088;-75
2022/05/18 08:43:01;;;;;;;9.10;4.82;;;;;;;;;;4989138;28;20045;-74
2022/05/18 08:45:29;;;;;;;11.03;5.30;;;;;;;;;;5028841;28;20045;-75
2022/05/18 08:48:06;;;;;;;9.18;4.70;;;;;;;;;;5037184;28;20323;-74
2022/05/18 08:50:33;;;;;;;9.60;4.97;;;;;;;;;;5037242;28;20048;-74
2022/05/18 08:53:06;;;;;;;13.35;5.03;;;;;;;;;;5035904;28;20065;-75
2022/05/18 08:55:50;;;;;;;9.45;5.00;;;;;;;;;;5037130;28;20112;-75
2022/05/18 08:58:20;;;;;;;9.50;4.18;;;;;;;;;;5038349;28;20037;-74
2022/05/18 09:00:51;;;;;;;9.45;4.00;;;;;;;;;;5015449;28;20503;-75
2022/05/18 09:03:17;;;;;;;;;;;;;;;;;;5039849;28;20045;-76
2022/05/18 09:05:47;;;;;;;12.73;4.60;;;;;;;;;;5037282;28;20382;-76
2022/05/18 09:08:15;;;;;;;8.35;3.80;;;;;;;;;;5039899;28;20099;-75
2022/05/18 09:10:54;;;;;;;9.07;3.88;;;;;;;;;;5038731;28;20060;-77
2022/05/18 09:13:20;;;;;;;8.55;4.55;;;;;;;;;;5037625;28;20373;-76
2022/05/18 09:15:55;;;;;;;6.95;3.83;;;;;;;;;;5036340;28;20045;-75
2022/05/18 09:18:31;;;;;;;7.50;4.05;;;;;;;;;;5038831;28;20046;-76
2022/05/18 09:21:02;;;;;;;8.65;4.30;;;;;;;;;;5040302;28;20046;-76
2022/05/18 09:23:28;;;;;;;9.23;4.72;;;;;;;;;;5039266;28;20446;-77
2022/05/18 09:26:05;;;;;;;7.78;4.25;;;;;;;;;;5038447;28;20045;-77
2022/05/18 09:28:52;;;;;;;9.02;4.85;;;;;;;;;;5034304;28;20096;-77
2022/05/18 09:31:33;;;;;;;9.07;5.03;;;;;;;;;;5034165;28;20718;-77
2022/05/18 09:34:19;;;;;;;9.50;4.88;;;;;;;;;;5036878;28;20049;-77
2022/05/18 09:37:04;;;;;;;10.95;5.68;;;;;;;;;;5038937;28;20108;-75
2022/05/18 09:39:35;;;;;;;11.77;5.93;;;;;;;;;;5037206;28;20041;-76
2022/05/18 09:42:03;;;;;;;9.55;5.68;;;;;;;;;;5020261;28;20048;-76
2022/05/18 09:44:40;;;;;;;8.23;5.03;;;;;;;;;;5037184;28;20072;-76
2022/05/18 09:47:06;;;;;;;10.52;5.07;;;;;;;;;;5024409;28;20132;-76
2022/05/18 09:49:34;;;;;;;11.32;5.47;;;;;;;;;;5024670;28;20419;-75
2022/05/18 09:52:02;;;;;;;9.05;5.60;;;;;;;;;;5035192;28;20385;-76
2022/05/18 09:54:30;;;;;;;11.52;5.43;;;;;;;;;;5039971;28;20052;-75
2022/05/18 09:57:06;;;;;;;9.10;5.57;;;;;;;;;;5049850;28;20075;-77
2022/05/18 09:59:35;;;;;;;8.10;4.85;;;;;;;;;;5036345;28;20156;-76
2022/05/18 10:07:45;;;;;;;8.18;4.90;;;;;;;;;;5030201;28;20069;-76
2022/05/18 10:10:15;;;;;;;7.90;5.30;;;;;;;;;;5030613;28;20064;-76
2022/05/18 10:12:43;;;;;;;10.15;4.97;;;;;;;;;;5017717;28;20042;-75
2022/05/18 10:15:19;;;;;;;11.65;5.55;;;;;;;;;;5045742;28;20049;-76
2022/05/18 10:17:47;;;;;;;8.05;3.63;;;;;;;;;;5028317;28;20463;-75
2022/05/18 10:20:25;;;;;;;8.73;5.38;;;;;;;;;;5026539;28;20506;-76
2022/05/18 10:22:52;;;;;;;9.02;4.72;;;;;;;;;;5035331;28;20084;-75
2022/05/18 10:25:37;;;;;;;9.93;5.30;;;;;;;;;;5037580;28;20052;-74
2022/05/18 10:28:10;;;;;;;8.13;5.10;;;;;;;;;;5021626;28;20037;-76
2022/05/18 10:30:37;;;;;;;9.70;5.35;;;;;;;;;;5036447;28;20044;-75
2022/05/18 10:33:19;;;;;;;8.30;4.28;;;;;;;;;;5038652;28;20507;-75
2022/05/18 10:35:50;;;;;;;9.50;5.00;;;;;;;;;;5035682;28;20053;-76
2022/05/18 10:38:19;;;;;;;8.48;4.68;;;;;;;;;;5029768;28;20041;-75
2022/05/18 10:40:45;;;;;;;9.55;4.53;;;;;;;;;;5037647;28;20049;-75
2022/05/18 10:43:29;;;;;;;9.65;4.80;;;;;;;;;;5039716;28;20407;-75
2022/05/18 10:45:56;;;;;;;8.80;4.50;;;;;;;;;;5042470;28;20049;-75
2022/05/18 10:48:23;;;;;;;10.02;4.65;;;;;;;;;;5032350;28;20041;-75
2022/05/18 10:50:58;;;;;;;8.43;4.25;;;;;;;;;;5032921;28;20060;-75
2022/05/18 10:53:32;;;;;;;8.63;4.15;;;;;;;;;;5040905;28;20045;-75
2022/05/18 10:56:00;;;;;;;6.85;3.95;;;;;;;;;;5036600;28;20073;-75
2022/05/18 10:58:26;;;;;;;5.78;3.20;;;;;;;;;;5032487;28;20099;-76
2022/05/18 11:00:56;;;;;;;7.93;3.15;;;;;;;;;;5059555;28;20053;-75
2022/05/18 11:03:22;;;;;;;6.28;2.97;;;;;;;;;;5058922;28;20044;-76
2022/05/18 11:05:53;;;;;;;6.28;3.50;;;;;;;;;;5038234;28;20041;-76
2022/05/18 11:08:21;;;;;;;7.72;3.60;;;;;;;;;;5037754;28;20096;-75
2022/05/18 11:10:50;;;;;;;9.00;3.50;;;;;;;;;;5032291;28;20179;-77
2022/05/18 11:13:22;;;;;;;10.00;3.47;;;;;;;;;;5022754;28;20471;-75
2022/05/18 11:15:52;;;;;;;11.00;3.80;;;;;;;;;;5038030;28;20085;-76
2022/05/18 11:18:26;;;;;;;6.95;3.85;;;;;;;;;;5035519;28;20068;-75
2022/05/18 11:20:56;;;;;;;6.88;4.15;;;;;;;;;;5039033;28;20054;-76
2022/05/18 11:23:48;;;;;;;7.72;4.13;;;;;;;;;;5037162;28;20075;-76
2022/05/18 11:26:17;;;;;;;11.90;4.15;;;;;;;;;;5025381;28;20050;-76
2022/05/18 11:28:53;;;;;;;8.60;3.80;;;;;;;;;;5026937;28;20097;-75
2022/05/18 11:31:35;;;;;;;9.23;4.45;;;;;;;;;;5040422;28;20461;-74
2022/05/18 11:34:19;;;;;;;6.88;3.85;;;;;;;;;;5040232;28;20060;-76
2022/05/18 11:36:57;;;;;;;10.38;4.30;;;;;;;;;;5036922;28;20060;-75
2022/05/18 11:39:32;;;;;;;10.50;3.83;;;;;;;;;;5041512;28;20048;-75
2022/05/18 11:42:13;;;;;;;8.18;3.40;;;;;;;;;;5052738;28;20053;-76
2022/05/18 11:44:47;;;;;;;8.63;3.60;;;;;;;;;;5037466;28;20045;-76
2022/05/18 11:47:13;;;;;;;8.30;4.65;;;;;;;;;;5037409;28;20081;-75
2022/05/18 11:50:02;;;;;;;8.93;4.97;;;;;;;;;;5035224;28;20046;-75
2022/05/18 11:52:35;;;;;;;8.55;4.07;;;;;;;;;;5011125;28;20053;-75
2022/05/18 11:55:07;;;;;;;8.48;3.80;;;;;;;;;;5004268;28;20502;-74
2022/05/18 11:57:39;;;;;;;9.60;4.88;;;;;;;;;;5037279;28;20045;-75
2022/05/18 12:00:13;;;;;;;7.10;4.20;;;;;;;;;;5018950;28;20037;-75
2022/05/18 12:02:57;;;;;;;6.25;3.15;;;;;;;;;;5036526;28;20136;-75
2022/05/18 12:05:42;;;;;;;6.80;2.92;;;;;;;;;;5017869;28;20561;-75
2022/05/18 12:08:27;;;;;;;5.57;2.70;;;;;;;;;;5003487;28;21315;-75
2022/05/18 12:11:12;;;;;;;7.97;4.03;;;;;;;;;;5036016;28;20575;-75
2022/05/18 12:13:38;;;;;;;8.43;4.45;;;;;;;;;;5036920;28;20038;-74
2022/05/18 12:16:04;;;;;;;8.15;4.25;;;;;;;;;;5040250;28;20120;-74
2022/05/18 12:18:33;;;;;;;8.32;3.70;;;;;;;;;;5035583;28;20053;-75
2022/05/18 12:21:03;;;;;;;9.13;4.40;;;;;;;;;;5037836;28;20059;-74
2022/05/18 12:23:33;;;;;;;7.20;4.28;;;;;;;;;;5034585;28;20041;-74
2022/05/18 12:25:59;;;;;;;8.27;4.38;;;;;;;;;;5038896;28;20049;-74
2022/05/18 12:28:26;;;;;;;6.18;3.78;;;;;;;;;;5022792;28;20038;-75
2022/05/18 12:30:52;;;;;;;8.85;4.20;;;;;;;;;;5033362;28;20099;-75
2022/05/18 12:33:20;;;;;;;8.80;3.90;;;;;;;;;;5039160;28;20045;-75
2022/05/18 12:35:50;;;;;;;10.05;4.72;;;;;;;;;;5036226;28;20091;-76
2022/05/18 12:38:32;;;;;;;10.07;4.88;;;;;;;;;;5037008;28;20499;-74
2022/05/18 12:41:00;;;;;;;8.63;3.53;;;;;;;;;;5033424;28;20053;-76
2022/05/18 12:43:45;;;;;;;8.50;4.40;;;;;;;;;;5033270;28;20045;-75
2022/05/18 12:46:17;;;;;;;10.68;5.20;;;;;;;;;;5015155;28;20475;-76
2022/05/18 12:48:43;;;;;;;10.38;5.72;;;;;;;;;;5015616;28;20052;-74
2022/05/18 12:51:27;;;;;;;10.15;5.25;;;;;;;;;;5018448;28;20037;-75
2022/05/18 12:53:59;;;;;;;8.73;4.22;;;;;;;;;;5033297;28;20446;-76
2022/05/18 12:56:38;;;;;;;13.00;5.60;;;;;;;;;;5031923;28;20049;-74
2022/05/18 12:59:16;;;;;;;9.40;6.03;;;;;;;;;;5031382;28;20053;-75
2022/05/18 13:01:46;;;;;;;11.18;6.20;;;;;;;;;;5028784;28;20037;-75
2022/05/18 13:04:15;;;;;;;12.93;7.40;;;;;;;;;;5054491;28;20076;-74
2022/05/18 13:06:44;;;;;;;12.88;6.32;;;;;;;;;;5049109;28;20128;-75
2022/05/18 13:09:25;;;;;;;10.35;7.32;;;;;;;;;;5011557;28;20101;-76
2022/05/18 13:11:51;;;;;;;;;;;;;;;;;;5012608;28;20046;-74
2022/05/18 13:14:25;;;;;;;12.40;8.15;;;;;;;;;;5008937;28;20004;-75
2022/05/18 13:16:51;;;;;;;10.63;7.07;;;;;;;;;;5012433;28;20100;-79
2022/05/18 13:19:21;;;;;;;11.38;5.95;;;;;;;;;;5003861;28;20038;-75
2022/05/18 13:21:52;;;;;;;10.15;5.63;;;;;;;;;;5013832;28;20436;-75
2022/05/18 13:24:19;;;;;;;9.27;6.00;;;;;;;;;;5009992;28;20060;-75
2022/05/18 13:26:47;;;;;;;14.23;7.18;;;;;;;;;;5012689;28;20050;-75
2022/05/18 13:29:25;;;;;;;10.20;6.65;;;;;;;;;;5007428;28;20050;-75
2022/05/18 13:31:55;;;;;;;10.20;5.90;;;;;;;;;;5012551;28;20050;-74
2022/05/18 13:34:25;;;;;;;10.05;5.00;;;;;;;;;;5003236;28;20104;-74
2022/05/18 13:36:51;;;;;;;;;;;;;;;;;;5014322;28;20042;-74
2022/05/18 13:39:20;;;;;;;8.52;4.00;;;;;;;;;;5010458;28;19929;-74
2022/05/18 13:41:48;;;;;;;9.55;4.30;;;;;;;;;;5005855;28;20042;-74
2022/05/18 13:44:14;;;;;;;11.43;4.40;;;;;;;;;;5014347;28;20073;-75
2022/05/18 13:46:41;;;;;;;7.43;4.70;;;;;;;;;;5011667;28;20038;-74
2022/05/18 13:49:15;;;;;;;11.20;4.45;;;;;;;;;;5013098;28;20054;-73
2022/05/18 13:51:43;;;;;;;8.25;3.50;;;;;;;;;;5005834;28;20535;-74
2022/05/18 13:54:13;;;;;;;9.43;4.50;;;;;;;;;;5010955;28;20045;-75
2022/05/18 13:56:43;;;;;;;10.80;6.70;;;;;;;;;;5013597;28;20069;-75
2022/05/18 13:59:11;;;;;;;8.52;6.40;;;;;;;;;;5008028;28;20293;-74
2022/05/18 14:01:47;;;;;;;9.60;6.40;;;;;;;;;;5013209;28;20053;-75
2022/05/18 14:04:17;;;;;;;13.52;6.55;;;;;;;;;;5011274;28;20054;-75
2022/05/18 14:06:47;;;;;;;10.75;7.78;;;;;;;;;;5012355;28;20053;-75
2022/05/18 14:09:16;;;;;;;13.25;8.30;;;;;;;;;;5027139;28;20078;-74
2022/05/18 14:11:43;;;;;;;17.33;8.70;;;;;;;;;;5027497;28;20046;-75
2022/05/18 14:14:09;;;;;;;11.55;8.27;;;;;;;;;;5021886;28;20046;-74
2022/05/18 14:16:38;;;;;;;12.10;8.07;;;;;;;;;;5023615;28;20052;-76
2022/05/18 14:19:06;;;;;;;11.45;8.63;;;;;;;;;;5031432;28;20048;-74
2022/05/18 14:21:32;;;;;;;12.10;7.95;;;;;;;;;;5033318;28;20092;-76
2022/05/18 14:24:02;;;;;;;10.95;7.60;;;;;;;;;;5014648;28;20041;-75
2022/05/18 14:26:30;;;;;;;12.35;8.57;;;;;;;;;;5011078;28;20077;-75
2022/05/18 14:28:58;;;;;;;12.45;8.70;;;;;;;;;;5028105;28;20045;-74
2022/05/18 14:31:26;;;;;;;13.35;8.60;;;;;;;;;;5031953;28;20128;-75
2022/05/18 14:33:54;;;;;;;13.25;9.25;;;;;;;;;;5031342;28;20049;-76
2022/05/18 14:36:35;;;;;;;13.50;9.10;;;;;;;;;;5014101;28;20132;-75
2022/05/18 14:39:04;;;;;;;12.95;9.88;;;;;;;;;;5019079;28;20089;-75
2022/05/18 14:41:37;;;;;;;12.88;9.98;;;;;;;;;;5023103;28;20076;-76
2022/05/18 14:44:03;;;;;;;16.42;10.05;;;;;;;;;;5021765;28;20075;-76
2022/05/18 14:46:31;;;;;;;17.35;10.85;;;;;;;;;;5031910;28;20056;-75
2022/05/18 14:49:18;;;;;;;13.82;11.13;;;;;;;;;;5033483;28;20068;-74
2022/05/18 14:51:48;;;;;;;16.88;10.25;;;;;;;;;;5029700;28;20127;-74
2022/05/18 14:54:14;;;;;;;;;;;;;;;;;;5032817;28;20054;-74
2022/05/18 14:56:43;;;;;;;10.35;6.55;;;;;;;;;;5031536;28;19921;-75
2022/05/18 14:59:12;;;;;;;9.02;6.20;;;;;;;;;;5022830;28;20186;-75
2022/05/18 15:01:38;;;;;;;10.65;6.35;;;;;;;;;;5009753;28;21382;-74
2022/05/18 15:04:11;;;;;;;8.77;6.63;;;;;;;;;;5031189;28;20484;-75
2022/05/18 15:06:37;;;;;;;13.35;7.63;;;;;;;;;;5031272;28;20053;-75